SKW4887 KLAX-KELP
Flight info
| Callsign | SKW4887 |
|---|---|
| Flight time | 1h 30m |
| Altitude | 35000 |
| Route | DOTSS2 CNERY BLH J169 KOFFA J50 ITEMM TEEES MOLLY5 |
| Aircraft | E75L/M-SDE3GILORVW/S |
Departure
| Time | 2026-04-26 21:01 |
|---|---|
| Airport | Los Angeles International Airport (KLAX) |
Arrival
| Time | 2026-04-26 22:32 |
|---|---|
| Airport | El Paso International Airport (KELP) |
| Time | Latitude | Longitude | Altitude | Speed | Heading |
|---|---|---|---|---|---|
| 2026-04-26 20:33 | 33.94048 | -118.40743 | 91 ft | 0 kts | 99° |
| 2026-04-26 20:36 | 33.94048 | -118.40744 | 91 ft | 0 kts | 99° |
| 2026-04-26 20:46 | 33.94048 | -118.40745 | 91 ft | 0 kts | 99° |
| 2026-04-26 20:49 | 33.94052 | -118.40772 | 91 ft | 3 kts | 99° |
| 2026-04-26 20:50 | 33.94055 | -118.40797 | 93 ft | 4 kts | 99° |
| 2026-04-26 20:50 | 33.94063 | -118.40827 | 92 ft | 4 kts | 132° |
| 2026-04-26 20:50 | 33.94070 | -118.40833 | 92 ft | 4 kts | 173° |
| 2026-04-26 20:50 | 33.94043 | -118.40829 | 94 ft | 4 kts | 173° |
| 2026-04-26 20:51 | 33.94016 | -118.40825 | 93 ft | 4 kts | 173° |
| 2026-04-26 20:51 | 33.93993 | -118.40821 | 91 ft | 1 kts | 173° |
| 2026-04-26 20:51 | 33.93992 | -118.40821 | 91 ft | 0 kts | 173° |
| 2026-04-26 20:53 | 33.93980 | -118.40819 | 92 ft | 3 kts | 173° |
| 2026-04-26 20:53 | 33.93947 | -118.40814 | 92 ft | 6 kts | 173° |
| 2026-04-26 20:54 | 33.93898 | -118.40793 | 91 ft | 9 kts | 139° |
| 2026-04-26 20:54 | 33.93846 | -118.40739 | 92 ft | 11 kts | 153° |
| 2026-04-26 20:54 | 33.93811 | -118.40663 | 95 ft | 12 kts | 85° |
| 2026-04-26 20:54 | 33.93822 | -118.40551 | 92 ft | 15 kts | 84° |
| 2026-04-26 20:55 | 33.93835 | -118.40421 | 93 ft | 17 kts | 83° |
| 2026-04-26 20:55 | 33.93851 | -118.40270 | 93 ft | 19 kts | 83° |
| 2026-04-26 20:55 | 33.93868 | -118.40100 | 95 ft | 22 kts | 83° |
| 2026-04-26 20:55 | 33.93886 | -118.39920 | 95 ft | 17 kts | 83° |
| 2026-04-26 20:56 | 33.93902 | -118.39761 | 93 ft | 21 kts | 83° |
| 2026-04-26 20:56 | 33.93921 | -118.39577 | 93 ft | 23 kts | 83° |
| 2026-04-26 20:56 | 33.93942 | -118.39372 | 95 ft | 26 kts | 83° |
| 2026-04-26 20:56 | 33.93963 | -118.39172 | 91 ft | 20 kts | 83° |
| 2026-04-26 20:57 | 33.93981 | -118.38994 | 92 ft | 23 kts | 83° |
| 2026-04-26 20:57 | 33.94002 | -118.38795 | 92 ft | 25 kts | 83° |
| 2026-04-26 20:57 | 33.94024 | -118.38581 | 93 ft | 27 kts | 83° |
| 2026-04-26 20:57 | 33.94046 | -118.38363 | 93 ft | 23 kts | 83° |
| 2026-04-26 20:58 | 33.94067 | -118.38158 | 92 ft | 26 kts | 83° |
| 2026-04-26 20:58 | 33.94076 | -118.38038 | 91 ft | 10 kts | 99° |
| 2026-04-26 20:58 | 33.94019 | -118.37997 | 92 ft | 12 kts | 187° |
| 2026-04-26 20:58 | 33.93979 | -118.38057 | 91 ft | 0 kts | 265° |
| 2026-04-26 21:00 | 33.93979 | -118.38056 | 91 ft | 0 kts | 265° |
| 2026-04-26 21:00 | 33.93979 | -118.38058 | 91 ft | 1 kts | 265° |
| 2026-04-26 21:01 | 33.93957 | -118.38272 | 96 ft | 63 kts | 263° |
| 2026-04-26 21:01 | 33.93873 | -118.39095 | 94 ft | 134 kts | 261° |
| 2026-04-26 21:01 | 33.93759 | -118.40308 | 598 ft | 154 kts | 260° |
| 2026-04-26 21:01 | 33.93743 | -118.41524 | 958 ft | 132 kts | 269° |
| 2026-04-26 21:02 | 33.93750 | -118.42586 | 1144 ft | 129 kts | 266° |
| 2026-04-26 21:02 | 33.93699 | -118.43696 | 1809 ft | 135 kts | 264° |
| 2026-04-26 21:02 | 33.93496 | -118.44856 | 2291 ft | 156 kts | 251° |
| 2026-04-26 21:02 | 33.92966 | -118.46068 | 2629 ft | 180 kts | 238° |
| 2026-04-26 21:03 | 33.92079 | -118.47230 | 3206 ft | 199 kts | 217° |
| 2026-04-26 21:03 | 33.90818 | -118.48130 | 3806 ft | 221 kts | 215° |
| 2026-04-26 21:03 | 33.89420 | -118.49042 | 4430 ft | 236 kts | 213° |
| 2026-04-26 21:03 | 33.87932 | -118.49988 | 5084 ft | 249 kts | 211° |
| 2026-04-26 21:04 | 33.86369 | -118.50978 | 5772 ft | 259 kts | 212° |
| 2026-04-26 21:04 | 33.84625 | -118.51598 | 6539 ft | 270 kts | 187° |
| 2026-04-26 21:04 | 33.82725 | -118.51609 | 7234 ft | 275 kts | 183° |
| 2026-04-26 21:04 | 33.80807 | -118.51529 | 7880 ft | 280 kts | 183° |
| 2026-04-26 21:05 | 33.78834 | -118.51427 | 8581 ft | 284 kts | 183° |
| 2026-04-26 21:05 | 33.76859 | -118.51437 | 9306 ft | 285 kts | 188° |
| 2026-04-26 21:05 | 33.74870 | -118.51598 | 10040 ft | 288 kts | 189° |
| 2026-04-26 21:05 | 33.72824 | -118.51791 | 10398 ft | 303 kts | 190° |
| 2026-04-26 21:06 | 33.70683 | -118.51763 | 10789 ft | 322 kts | 173° |
| 2026-04-26 21:06 | 33.68608 | -118.50623 | 11424 ft | 337 kts | 146° |
| 2026-04-26 21:06 | 33.67059 | -118.48472 | 12108 ft | 347 kts | 121° |
| 2026-04-26 21:06 | 33.66324 | -118.45700 | 12806 ft | 354 kts | 99° |
| 2026-04-26 21:07 | 33.66034 | -118.42749 | 13522 ft | 357 kts | 96° |
| 2026-04-26 21:07 | 33.65739 | -118.39779 | 14208 ft | 361 kts | 98° |
| 2026-04-26 21:07 | 33.65398 | -118.36777 | 14953 ft | 363 kts | 98° |
| 2026-04-26 21:07 | 33.65087 | -118.33744 | 15728 ft | 368 kts | 97° |
| 2026-04-26 21:08 | 33.64809 | -118.30676 | 16447 ft | 372 kts | 96° |
| 2026-04-26 21:08 | 33.64557 | -118.27620 | 17323 ft | 373 kts | 95° |
| 2026-04-26 21:08 | 33.64480 | -118.24492 | 18069 ft | 380 kts | 90° |
| 2026-04-26 21:08 | 33.64465 | -118.21304 | 18744 ft | 384 kts | 90° |
| 2026-04-26 21:09 | 33.64465 | -118.18084 | 19375 ft | 389 kts | 90° |
| 2026-04-26 21:09 | 33.64465 | -118.14811 | 20027 ft | 394 kts | 90° |
| 2026-04-26 21:09 | 33.64465 | -118.11494 | 20654 ft | 400 kts | 91° |
| 2026-04-26 21:09 | 33.64463 | -118.08136 | 21264 ft | 405 kts | 91° |
| 2026-04-26 21:10 | 33.64461 | -118.04737 | 21866 ft | 412 kts | 91° |
| 2026-04-26 21:10 | 33.64457 | -118.01276 | 22482 ft | 417 kts | 91° |
| 2026-04-26 21:10 | 33.64452 | -117.97768 | 23098 ft | 422 kts | 92° |
| 2026-04-26 21:10 | 33.64446 | -117.94230 | 23680 ft | 427 kts | 92° |
| 2026-04-26 21:11 | 33.64439 | -117.90633 | 24094 ft | 434 kts | 92° |
| 2026-04-26 21:11 | 33.64431 | -117.87005 | 24594 ft | 438 kts | 92° |
| 2026-04-26 21:11 | 33.64387 | -117.83325 | 25100 ft | 442 kts | 96° |
| 2026-04-26 21:11 | 33.64040 | -117.79662 | 25634 ft | 444 kts | 102° |
| 2026-04-26 21:12 | 33.63484 | -117.75998 | 26141 ft | 446 kts | 109° |
| 2026-04-26 21:12 | 33.62658 | -117.72451 | 26619 ft | 449 kts | 110° |
| 2026-04-26 21:12 | 33.61796 | -117.68863 | 27086 ft | 452 kts | 111° |
| 2026-04-26 21:12 | 33.60900 | -117.65227 | 27541 ft | 456 kts | 112° |
| 2026-04-26 21:13 | 33.59996 | -117.61571 | 27988 ft | 460 kts | 112° |
| 2026-04-26 21:13 | 33.59083 | -117.57877 | 28437 ft | 463 kts | 112° |
| 2026-04-26 21:13 | 33.58160 | -117.54153 | 28888 ft | 467 kts | 112° |
| 2026-04-26 21:13 | 33.57234 | -117.50417 | 29335 ft | 471 kts | 112° |
| 2026-04-26 21:14 | 33.56294 | -117.46631 | 29729 ft | 476 kts | 112° |
| 2026-04-26 21:14 | 33.55335 | -117.42784 | 29852 ft | 485 kts | 112° |
| 2026-04-26 21:14 | 33.54383 | -117.38940 | 30209 ft | 488 kts | 112° |
| 2026-04-26 21:14 | 33.53421 | -117.35077 | 30406 ft | 494 kts | 113° |
| 2026-04-26 21:15 | 33.52461 | -117.31240 | 30780 ft | 495 kts | 114° |
| 2026-04-26 21:15 | 33.51512 | -117.27401 | 31206 ft | 497 kts | 112° |
| 2026-04-26 21:15 | 33.50834 | -117.23432 | 31605 ft | 503 kts | 105° |
| 2026-04-26 21:15 | 33.50463 | -117.19386 | 31975 ft | 509 kts | 97° |
| 2026-04-26 21:16 | 33.50393 | -117.15286 | 32308 ft | 510 kts | 96° |
| 2026-04-26 21:16 | 33.50320 | -117.11143 | 32679 ft | 511 kts | 96° |
| 2026-04-26 21:16 | 33.50265 | -117.07022 | 33040 ft | 511 kts | 96° |
| 2026-04-26 21:16 | 33.50208 | -117.02914 | 33388 ft | 511 kts | 96° |
| 2026-04-26 21:17 | 33.50151 | -116.98767 | 33721 ft | 512 kts | 96° |
| 2026-04-26 21:17 | 33.50091 | -116.94638 | 34051 ft | 512 kts | 96° |
| 2026-04-26 21:17 | 33.50031 | -116.90551 | 34337 ft | 511 kts | 96° |
| 2026-04-26 21:17 | 33.49968 | -116.86394 | 34580 ft | 511 kts | 96° |
| 2026-04-26 21:18 | 33.49904 | -116.82257 | 34771 ft | 509 kts | 96° |
| 2026-04-26 21:18 | 33.49841 | -116.78096 | 34715 ft | 491 kts | 96° |
| 2026-04-26 21:18 | 33.49771 | -116.74009 | 34697 ft | 496 kts | 96° |
| 2026-04-26 21:19 | 33.49630 | -116.65601 | 34724 ft | 513 kts | 96° |
| 2026-04-26 21:19 | 33.49485 | -116.57081 | 34661 ft | 510 kts | 97° |
| 2026-04-26 21:20 | 33.49329 | -116.48537 | 34692 ft | 513 kts | 97° |
| 2026-04-26 21:20 | 33.49180 | -116.39990 | 34681 ft | 513 kts | 96° |
| 2026-04-26 21:21 | 33.49055 | -116.31499 | 34691 ft | 514 kts | 96° |
| 2026-04-26 21:21 | 33.48926 | -116.22874 | 34694 ft | 516 kts | 97° |
| 2026-04-26 21:22 | 33.48788 | -116.14296 | 34648 ft | 516 kts | 97° |
| 2026-04-26 21:22 | 33.48741 | -116.05745 | 34643 ft | 520 kts | 90° |
| 2026-04-26 21:23 | 33.50214 | -115.97205 | 34638 ft | 528 kts | 71° |
| 2026-04-26 21:23 | 33.51557 | -115.93114 | 34644 ft | 528 kts | 69° |
| 2026-04-26 21:23 | 33.54036 | -115.84884 | 34640 ft | 528 kts | 72° |
| 2026-04-26 21:24 | 33.56456 | -115.76575 | 34644 ft | 527 kts | 72° |
| 2026-04-26 21:24 | 33.58866 | -115.68277 | 34620 ft | 527 kts | 72° |
| 2026-04-26 21:25 | 33.61152 | -115.59920 | 34609 ft | 526 kts | 79° |
| 2026-04-26 21:25 | 33.61873 | -115.51307 | 34622 ft | 515 kts | 98° |
| 2026-04-26 21:26 | 33.61424 | -115.42764 | 34618 ft | 515 kts | 98° |
| 2026-04-26 21:26 | 33.61190 | -115.34219 | 34612 ft | 515 kts | 98° |
| 2026-04-26 21:27 | 33.60973 | -115.25643 | 34586 ft | 515 kts | 97° |
| 2026-04-26 21:27 | 33.60752 | -115.17058 | 34601 ft | 515 kts | 98° |
| 2026-04-26 21:28 | 33.60523 | -115.08466 | 34593 ft | 515 kts | 98° |
| 2026-04-26 21:28 | 33.60288 | -114.99895 | 34401 ft | 510 kts | 98° |
| 2026-04-26 21:29 | 33.60050 | -114.91440 | 34505 ft | 509 kts | 98° |
| 2026-04-26 21:29 | 33.59807 | -114.82950 | 34559 ft | 509 kts | 98° |
| 2026-04-26 21:30 | 33.59437 | -114.74497 | 34582 ft | 505 kts | 102° |
| 2026-04-26 21:30 | 33.58852 | -114.67523 | 34572 ft | 504 kts | 103° |
| 2026-04-26 21:31 | 33.57978 | -114.57736 | 34584 ft | 505 kts | 103° |
| 2026-04-26 21:31 | 33.57229 | -114.49423 | 34578 ft | 504 kts | 103° |
| 2026-04-26 21:32 | 33.56471 | -114.41062 | 34587 ft | 504 kts | 103° |
| 2026-04-26 21:32 | 33.55710 | -114.32720 | 34598 ft | 503 kts | 103° |
| 2026-04-26 21:33 | 33.54944 | -114.24378 | 34593 ft | 505 kts | 103° |
| 2026-04-26 21:33 | 33.54170 | -114.16015 | 34592 ft | 505 kts | 103° |
| 2026-04-26 21:34 | 33.53389 | -114.07651 | 34593 ft | 504 kts | 103° |
| 2026-04-26 21:34 | 33.52602 | -113.99270 | 34601 ft | 507 kts | 103° |
| 2026-04-26 21:35 | 33.51809 | -113.90887 | 34611 ft | 506 kts | 103° |
| 2026-04-26 21:35 | 33.51009 | -113.82507 | 34617 ft | 506 kts | 103° |
| 2026-04-26 21:36 | 33.50341 | -113.75544 | 34631 ft | 506 kts | 103° |
| 2026-04-26 21:36 | 33.49398 | -113.65789 | 34637 ft | 506 kts | 103° |
| 2026-04-26 21:37 | 33.48582 | -113.57410 | 34642 ft | 506 kts | 103° |
| 2026-04-26 21:37 | 33.47762 | -113.49051 | 34783 ft | 507 kts | 103° |
| 2026-04-26 21:38 | 33.47073 | -113.42080 | 34827 ft | 510 kts | 103° |
| 2026-04-26 21:38 | 33.45714 | -113.33769 | 34809 ft | 500 kts | 118° |
| 2026-04-26 21:39 | 33.44388 | -113.29991 | 34827 ft | 487 kts | 128° |
| 2026-04-26 21:39 | 33.42652 | -113.26570 | 34836 ft | 474 kts | 137° |
| 2026-04-26 21:39 | 33.40562 | -113.23604 | 34840 ft | 459 kts | 147° |
| 2026-04-26 21:39 | 33.38267 | -113.21019 | 34835 ft | 453 kts | 150° |
| 2026-04-26 21:40 | 33.33572 | -113.15996 | 34827 ft | 453 kts | 150° |
| 2026-04-26 21:40 | 33.28898 | -113.10943 | 34835 ft | 453 kts | 150° |
| 2026-04-26 21:41 | 33.24406 | -113.05516 | 34827 ft | 464 kts | 144° |
| 2026-04-26 21:41 | 33.20068 | -112.99782 | 34840 ft | 465 kts | 144° |
| 2026-04-26 21:42 | 33.15750 | -112.94038 | 34833 ft | 464 kts | 144° |
| 2026-04-26 21:42 | 33.11421 | -112.88298 | 34827 ft | 465 kts | 144° |
| 2026-04-26 21:43 | 33.07094 | -112.82566 | 34811 ft | 465 kts | 144° |
| 2026-04-26 21:43 | 33.02794 | -112.76883 | 34871 ft | 466 kts | 144° |
| 2026-04-26 21:44 | 32.98448 | -112.71144 | 34860 ft | 466 kts | 143° |
| 2026-04-26 21:44 | 32.96444 | -112.68040 | 34868 ft | 481 kts | 134° |
| 2026-04-26 21:44 | 32.94805 | -112.64494 | 34880 ft | 495 kts | 124° |
| 2026-04-26 21:45 | 32.93594 | -112.60613 | 34873 ft | 507 kts | 114° |
| 2026-04-26 21:45 | 32.92856 | -112.56553 | 34856 ft | 515 kts | 104° |
| 2026-04-26 21:45 | 32.92537 | -112.47888 | 34853 ft | 524 kts | 95° |
| 2026-04-26 21:46 | 32.92540 | -112.39256 | 34853 ft | 525 kts | 95° |
| 2026-04-26 21:46 | 32.92267 | -112.30550 | 34818 ft | 519 kts | 102° |
| 2026-04-26 21:47 | 32.91517 | -112.22053 | 34845 ft | 519 kts | 103° |
| 2026-04-26 21:47 | 32.90722 | -112.13516 | 34843 ft | 519 kts | 103° |
| 2026-04-26 21:48 | 32.89920 | -112.04978 | 34847 ft | 520 kts | 103° |
| 2026-04-26 21:48 | 32.89111 | -111.96411 | 34849 ft | 520 kts | 103° |
| 2026-04-26 21:49 | 32.87937 | -111.87996 | 34851 ft | 510 kts | 113° |
| 2026-04-26 21:49 | 32.86140 | -111.79814 | 34838 ft | 510 kts | 112° |
| 2026-04-26 21:50 | 32.84320 | -111.71638 | 34827 ft | 511 kts | 113° |
| 2026-04-26 21:50 | 32.82500 | -111.63488 | 34838 ft | 511 kts | 113° |
| 2026-04-26 21:51 | 32.80672 | -111.55325 | 34795 ft | 511 kts | 113° |
| 2026-04-26 21:51 | 32.78832 | -111.47135 | 34821 ft | 512 kts | 113° |
| 2026-04-26 21:52 | 32.76988 | -111.38949 | 34810 ft | 512 kts | 113° |
| 2026-04-26 21:52 | 32.75142 | -111.30785 | 34811 ft | 512 kts | 113° |
| 2026-04-26 21:53 | 32.73301 | -111.22670 | 34800 ft | 512 kts | 113° |
| 2026-04-26 21:53 | 32.71448 | -111.14522 | 34797 ft | 512 kts | 113° |
| 2026-04-26 21:54 | 32.69585 | -111.06364 | 34802 ft | 512 kts | 113° |
| 2026-04-26 21:54 | 32.67715 | -110.98198 | 34800 ft | 512 kts | 113° |
| 2026-04-26 21:55 | 32.65842 | -110.90045 | 34783 ft | 512 kts | 113° |
| 2026-04-26 21:55 | 32.63968 | -110.81913 | 34795 ft | 512 kts | 113° |
| 2026-04-26 21:56 | 32.62080 | -110.73749 | 34795 ft | 514 kts | 113° |
| 2026-04-26 21:56 | 32.60181 | -110.65563 | 34793 ft | 514 kts | 113° |
| 2026-04-26 21:57 | 32.58475 | -110.57308 | 34784 ft | 521 kts | 105° |
| 2026-04-26 21:57 | 32.57361 | -110.48814 | 34798 ft | 521 kts | 105° |
| 2026-04-26 21:58 | 32.56279 | -110.40291 | 34787 ft | 523 kts | 105° |
| 2026-04-26 21:58 | 32.55203 | -110.31834 | 34793 ft | 523 kts | 105° |
| 2026-04-26 21:59 | 32.54110 | -110.23334 | 34837 ft | 521 kts | 105° |
| 2026-04-26 21:59 | 32.53016 | -110.14851 | 34775 ft | 519 kts | 105° |
| 2026-04-26 22:00 | 32.51916 | -110.06379 | 34791 ft | 522 kts | 105° |
| 2026-04-26 22:00 | 32.50812 | -109.97913 | 34782 ft | 521 kts | 105° |
| 2026-04-26 22:01 | 32.49699 | -109.89433 | 34772 ft | 521 kts | 105° |
| 2026-04-26 22:01 | 32.48581 | -109.80956 | 34769 ft | 521 kts | 105° |
| 2026-04-26 22:02 | 32.47643 | -109.73890 | 34755 ft | 523 kts | 104° |
| 2026-04-26 22:02 | 32.46342 | -109.64128 | 34759 ft | 529 kts | 105° |
| 2026-04-26 22:03 | 32.45174 | -109.55417 | 34759 ft | 545 kts | 104° |
| 2026-04-26 22:03 | 32.43965 | -109.46440 | 34744 ft | 555 kts | 104° |
| 2026-04-26 22:04 | 32.42747 | -109.37448 | 34734 ft | 553 kts | 104° |
| 2026-04-26 22:04 | 32.41534 | -109.28549 | 34739 ft | 550 kts | 104° |
| 2026-04-26 22:05 | 32.40308 | -109.19595 | 34741 ft | 550 kts | 104° |
| 2026-04-26 22:05 | 32.39076 | -109.10661 | 34720 ft | 551 kts | 104° |
| 2026-04-26 22:06 | 32.37838 | -109.01710 | 34730 ft | 551 kts | 104° |
| 2026-04-26 22:06 | 32.36592 | -108.92769 | 34742 ft | 551 kts | 104° |
| 2026-04-26 22:07 | 32.35350 | -108.83885 | 34282 ft | 543 kts | 104° |
| 2026-04-26 22:07 | 32.34738 | -108.79531 | 33753 ft | 533 kts | 104° |
| 2026-04-26 22:07 | 32.34144 | -108.75318 | 33362 ft | 519 kts | 104° |
| 2026-04-26 22:08 | 32.33537 | -108.71045 | 33019 ft | 526 kts | 104° |
| 2026-04-26 22:08 | 32.32948 | -108.66861 | 32967 ft | 524 kts | 104° |
| 2026-04-26 22:08 | 32.31746 | -108.58407 | 32937 ft | 522 kts | 104° |
| 2026-04-26 22:09 | 32.30536 | -108.49934 | 32877 ft | 522 kts | 104° |
| 2026-04-26 22:09 | 32.29335 | -108.41569 | 32806 ft | 513 kts | 103° |
| 2026-04-26 22:10 | 32.28134 | -108.33234 | 32780 ft | 515 kts | 103° |
| 2026-04-26 22:10 | 32.26970 | -108.24888 | 32739 ft | 516 kts | 101° |
| 2026-04-26 22:11 | 32.25995 | -108.16466 | 32743 ft | 517 kts | 101° |
| 2026-04-26 22:11 | 32.25519 | -108.12273 | 32378 ft | 515 kts | 101° |
| 2026-04-26 22:11 | 32.25040 | -108.08081 | 31389 ft | 516 kts | 101° |
| 2026-04-26 22:12 | 32.24559 | -108.03877 | 30457 ft | 515 kts | 101° |
| 2026-04-26 22:12 | 32.24079 | -107.99689 | 29478 ft | 514 kts | 101° |
| 2026-04-26 22:12 | 32.23605 | -107.95567 | 28625 ft | 508 kts | 101° |
| 2026-04-26 22:12 | 32.23127 | -107.91435 | 27811 ft | 502 kts | 101° |
| 2026-04-26 22:13 | 32.22658 | -107.87387 | 27022 ft | 495 kts | 101° |
| 2026-04-26 22:13 | 32.22187 | -107.83385 | 26264 ft | 489 kts | 101° |
| 2026-04-26 22:13 | 32.21737 | -107.79480 | 25715 ft | 483 kts | 101° |
| 2026-04-26 22:13 | 32.21285 | -107.75559 | 25004 ft | 477 kts | 101° |
| 2026-04-26 22:14 | 32.20839 | -107.71704 | 24320 ft | 470 kts | 101° |
| 2026-04-26 22:14 | 32.20401 | -107.67905 | 23641 ft | 465 kts | 101° |
| 2026-04-26 22:14 | 32.19964 | -107.64140 | 22902 ft | 459 kts | 101° |
| 2026-04-26 22:14 | 32.19532 | -107.60436 | 22176 ft | 453 kts | 101° |
| 2026-04-26 22:15 | 32.19107 | -107.56787 | 21407 ft | 446 kts | 101° |
| 2026-04-26 22:15 | 32.18684 | -107.53180 | 20700 ft | 440 kts | 101° |
| 2026-04-26 22:15 | 32.18268 | -107.49625 | 19999 ft | 434 kts | 101° |
| 2026-04-26 22:15 | 32.17855 | -107.46116 | 19316 ft | 429 kts | 100° |
| 2026-04-26 22:16 | 32.17446 | -107.42650 | 18652 ft | 423 kts | 100° |
| 2026-04-26 22:16 | 32.17041 | -107.39226 | 18003 ft | 418 kts | 100° |
| 2026-04-26 22:16 | 32.16643 | -107.35860 | 17327 ft | 411 kts | 100° |
| 2026-04-26 22:16 | 32.16253 | -107.32575 | 16630 ft | 406 kts | 100° |
| 2026-04-26 22:17 | 32.15865 | -107.29299 | 15981 ft | 400 kts | 100° |
| 2026-04-26 22:17 | 32.15480 | -107.26080 | 15347 ft | 396 kts | 100° |
| 2026-04-26 22:17 | 32.15098 | -107.22882 | 14735 ft | 392 kts | 100° |
| 2026-04-26 22:17 | 32.14719 | -107.19723 | 14153 ft | 387 kts | 100° |
| 2026-04-26 22:18 | 32.14343 | -107.16595 | 13564 ft | 382 kts | 100° |
| 2026-04-26 22:18 | 32.13971 | -107.13499 | 12921 ft | 378 kts | 100° |
| 2026-04-26 22:18 | 32.13604 | -107.10453 | 12316 ft | 372 kts | 100° |
| 2026-04-26 22:18 | 32.13240 | -107.07439 | 11724 ft | 367 kts | 100° |
| 2026-04-26 22:19 | 32.12884 | -107.04491 | 11291 ft | 358 kts | 100° |
| 2026-04-26 22:19 | 32.12540 | -107.01643 | 11052 ft | 343 kts | 100° |
| 2026-04-26 22:19 | 32.12204 | -106.98914 | 10808 ft | 331 kts | 102° |
| 2026-04-26 22:19 | 32.11717 | -106.96308 | 10504 ft | 321 kts | 106° |
| 2026-04-26 22:20 | 32.11195 | -106.93838 | 10079 ft | 318 kts | 107° |
| 2026-04-26 22:20 | 32.10832 | -106.92166 | 9818 ft | 316 kts | 107° |
| 2026-04-26 22:20 | 32.10107 | -106.88848 | 9242 ft | 312 kts | 107° |
| 2026-04-26 22:20 | 32.09576 | -106.86341 | 9061 ft | 317 kts | 105° |
| 2026-04-26 22:21 | 32.09047 | -106.83859 | 8993 ft | 313 kts | 108° |
| 2026-04-26 22:21 | 32.08469 | -106.81418 | 8960 ft | 310 kts | 108° |
| 2026-04-26 22:21 | 32.07886 | -106.78971 | 8959 ft | 307 kts | 108° |
| 2026-04-26 22:21 | 32.07358 | -106.76542 | 8966 ft | 307 kts | 100° |
| 2026-04-26 22:22 | 32.07379 | -106.74089 | 8963 ft | 291 kts | 86° |
| 2026-04-26 22:22 | 32.07569 | -106.71772 | 8944 ft | 277 kts | 84° |
| 2026-04-26 22:22 | 32.07766 | -106.69549 | 8939 ft | 266 kts | 85° |
| 2026-04-26 22:22 | 32.07917 | -106.67384 | 8958 ft | 264 kts | 92° |
| 2026-04-26 22:23 | 32.07679 | -106.65219 | 8994 ft | 267 kts | 107° |
| 2026-04-26 22:23 | 32.07334 | -106.63814 | 9006 ft | 266 kts | 112° |
| 2026-04-26 22:23 | 32.06678 | -106.61777 | 8816 ft | 265 kts | 116° |
| 2026-04-26 22:23 | 32.05954 | -106.59834 | 8777 ft | 252 kts | 119° |
| 2026-04-26 22:24 | 32.05154 | -106.58075 | 8729 ft | 241 kts | 123° |
| 2026-04-26 22:24 | 32.04342 | -106.56401 | 8654 ft | 233 kts | 123° |
| 2026-04-26 22:24 | 32.03535 | -106.54756 | 8449 ft | 231 kts | 124° |
| 2026-04-26 22:24 | 32.02721 | -106.53109 | 8152 ft | 231 kts | 124° |
| 2026-04-26 22:25 | 32.01908 | -106.51480 | 7830 ft | 230 kts | 123° |
| 2026-04-26 22:25 | 32.01115 | -106.49854 | 7514 ft | 228 kts | 124° |
| 2026-04-26 22:25 | 32.00318 | -106.48229 | 7289 ft | 227 kts | 124° |
| 2026-04-26 22:25 | 31.99525 | -106.46608 | 6953 ft | 229 kts | 124° |
| 2026-04-26 22:26 | 31.98727 | -106.44988 | 6657 ft | 228 kts | 124° |
| 2026-04-26 22:26 | 31.97932 | -106.43375 | 6380 ft | 227 kts | 124° |
| 2026-04-26 22:26 | 31.97146 | -106.41792 | 6190 ft | 225 kts | 124° |
| 2026-04-26 22:26 | 31.96363 | -106.40192 | 6089 ft | 221 kts | 124° |
| 2026-04-26 22:27 | 31.95626 | -106.38690 | 6020 ft | 202 kts | 125° |
| 2026-04-26 22:27 | 31.94950 | -106.37319 | 6030 ft | 189 kts | 126° |
| 2026-04-26 22:27 | 31.94283 | -106.35993 | 6039 ft | 187 kts | 124° |
| 2026-04-26 22:27 | 31.93622 | -106.34663 | 6057 ft | 190 kts | 124° |
| 2026-04-26 22:28 | 31.92952 | -106.33312 | 6111 ft | 192 kts | 128° |
| 2026-04-26 22:28 | 31.92205 | -106.32011 | 6076 ft | 187 kts | 131° |
| 2026-04-26 22:28 | 31.91340 | -106.30929 | 5624 ft | 183 kts | 156° |
| 2026-04-26 22:28 | 31.90171 | -106.30410 | 5199 ft | 175 kts | 170° |
| 2026-04-26 22:29 | 31.89019 | -106.30204 | 5067 ft | 168 kts | 199° |
| 2026-04-26 22:29 | 31.87883 | -106.30494 | 5049 ft | 164 kts | 200° |
| 2026-04-26 22:29 | 31.86918 | -106.30918 | 5015 ft | 136 kts | 222° |
| 2026-04-26 22:29 | 31.86189 | -106.31599 | 5029 ft | 130 kts | 230° |
| 2026-04-26 22:30 | 31.85540 | -106.32407 | 5001 ft | 144 kts | 231° |
| 2026-04-26 22:30 | 31.84892 | -106.33275 | 4831 ft | 134 kts | 235° |
| 2026-04-26 22:30 | 31.84287 | -106.34165 | 4630 ft | 146 kts | 239° |
| 2026-04-26 22:30 | 31.83656 | -106.35061 | 4393 ft | 140 kts | 238° |
| 2026-04-26 22:31 | 31.83039 | -106.35938 | 4206 ft | 136 kts | 239° |
| 2026-04-26 22:31 | 31.82474 | -106.36746 | 4041 ft | 122 kts | 237° |
| 2026-04-26 22:31 | 31.81945 | -106.37485 | 3962 ft | 110 kts | 238° |
| 2026-04-26 22:31 | 31.81542 | -106.38056 | 3944 ft | 75 kts | 233° |
| 2026-04-26 22:32 | 31.81293 | -106.38404 | 3946 ft | 36 kts | 226° |
| 2026-04-26 22:32 | 31.81157 | -106.38596 | 3947 ft | 26 kts | 230° |
| 2026-04-26 22:32 | 31.81058 | -106.38735 | 3947 ft | 20 kts | 230° |
| 2026-04-26 22:32 | 31.80973 | -106.38848 | 3946 ft | 17 kts | 230° |
| 2026-04-26 22:33 | 31.80901 | -106.38948 | 3946 ft | 15 kts | 229° |
| 2026-04-26 22:33 | 31.80757 | -106.38975 | 3944 ft | 14 kts | 140° |
| 2026-04-26 22:33 | 31.80677 | -106.38898 | 3944 ft | 15 kts | 148° |
| 2026-04-26 22:34 | 31.80587 | -106.38935 | 3944 ft | 15 kts | 224° |
| 2026-04-26 22:34 | 31.80509 | -106.39020 | 3944 ft | 15 kts | 222° |
| 2026-04-26 22:34 | 31.80433 | -106.39103 | 3944 ft | 15 kts | 221° |
| 2026-04-26 22:34 | 31.80356 | -106.39185 | 3944 ft | 15 kts | 225° |
| 2026-04-26 22:35 | 31.80283 | -106.39269 | 3945 ft | 15 kts | 223° |
| 2026-04-26 22:35 | 31.80205 | -106.39348 | 3945 ft | 15 kts | 216° |
| 2026-04-26 22:35 | 31.80143 | -106.39436 | 3945 ft | 14 kts | 272° |
| 2026-04-26 22:35 | 31.80148 | -106.39547 | 3945 ft | 13 kts | 273° |
| 2026-04-26 22:36 | 31.80144 | -106.39608 | 3945 ft | 5 kts | 233° |
| 2026-04-26 22:36 | 31.80112 | -106.39631 | 3945 ft | 5 kts | 211° |
| 2026-04-26 22:36 | 31.80105 | -106.39636 | 3945 ft | 2 kts | 212° |
| 2026-04-26 22:36 | 31.80099 | -106.39641 | 3945 ft | 0 kts | 212° |